sensor_id;sensor_type;location;lat;lon;timestamp;pressure;altitude;pressure_sealevel;temperature;humidity
65131;BME280;51709;54.912;8.316;2023-05-11T00:03:06;101469.53;;;8.07;80.23
65131;BME280;51709;54.912;8.316;2023-05-11T00:08:27;101465.25;;;8.06;80.22
65131;BME280;51709;54.912;8.316;2023-05-11T00:13:48;101465.25;;;7.98;80.09
65131;BME280;51709;54.912;8.316;2023-05-11T00:19:09;101466.09;;;7.93;80.36
65131;BME280;51709;54.912;8.316;2023-05-11T00:24:30;101466.09;;;7.88;80.47
65131;BME280;51709;54.912;8.316;2023-05-11T00:29:50;101464.41;;;7.92;80.45
65131;BME280;51709;54.912;8.316;2023-05-11T00:35:11;101467.81;;;7.89;80.46
65131;BME280;51709;54.912;8.316;2023-05-11T00:40:32;101466.09;;;7.88;80.65
65131;BME280;51709;54.912;8.316;2023-05-11T00:45:53;101478.88;;;7.90;80.56
65131;BME280;51709;54.912;8.316;2023-05-11T00:51:13;101478.03;;;7.91;80.64
65131;BME280;51709;54.912;8.316;2023-05-11T00:56:34;101479.75;;;7.98;80.33
65131;BME280;51709;54.912;8.316;2023-05-11T01:01:54;101472.94;;;8.01;80.70
65131;BME280;51709;54.912;8.316;2023-05-11T01:07:19;101472.94;;;8.05;80.50
65131;BME280;51709;54.912;8.316;2023-05-11T01:18:35;101487.41;;;8.10;80.34
65131;BME280;51709;54.912;8.316;2023-05-11T01:35:21;101488.25;;;8.11;80.34
65131;BME280;51709;54.912;8.316;2023-05-11T01:40:43;101491.66;;;8.14;80.29
65131;BME280;51709;54.912;8.316;2023-05-11T01:46:04;101496.78;;;8.17;80.48
65131;BME280;51709;54.912;8.316;2023-05-11T01:51:32;101499.31;;;8.19;80.55
65131;BME280;51709;54.912;8.316;2023-05-11T01:56:54;101503.59;;;8.25;80.49
65131;BME280;51709;54.912;8.316;2023-05-11T02:02:17;101507.00;;;8.24;80.25
65131;BME280;51709;54.912;8.316;2023-05-11T02:07:41;101507.84;;;8.21;80.42
65131;BME280;51709;54.912;8.316;2023-05-11T02:13:04;101512.09;;;8.24;80.46
65131;BME280;51709;54.912;8.316;2023-05-11T02:18:26;101506.16;;;8.26;80.55
65131;BME280;51709;54.912;8.316;2023-05-11T02:23:51;101520.63;;;8.29;80.28
65131;BME280;51709;54.912;8.316;2023-05-11T02:29:13;101535.13;;;8.31;80.58
65131;BME280;51709;54.912;8.316;2023-05-11T02:34:41;101524.03;;;8.32;80.50
65131;BME280;51709;54.912;8.316;2023-05-11T02:40:08;101528.28;;;8.35;80.33
65131;BME280;51709;54.912;8.316;2023-05-11T02:45:33;101542.81;;;8.41;80.46
65131;BME280;51709;54.912;8.316;2023-05-11T02:50:55;101543.66;;;8.44;80.41
65131;BME280;51709;54.912;8.316;2023-05-11T02:56:23;101549.59;;;8.45;80.46
65131;BME280;51709;54.912;8.316;2023-05-11T03:01:46;101550.47;;;8.42;80.76
65131;BME280;51709;54.912;8.316;2023-05-11T03:07:08;101552.16;;;8.42;80.58
65131;BME280;51709;54.912;8.316;2023-05-11T03:12:29;101550.50;;;8.41;80.59
65131;BME280;51709;54.912;8.316;2023-05-11T03:17:54;101559.00;;;8.40;80.71
65131;BME280;51709;54.912;8.316;2023-05-11T03:23:17;101560.69;;;8.42;80.71
65131;BME280;51709;54.912;8.316;2023-05-11T03:28:39;101554.72;;;8.45;80.84
65131;BME280;51709;54.912;8.316;2023-05-11T03:34:01;101559.88;;;8.48;80.74
65131;BME280;51709;54.912;8.316;2023-05-11T03:39:29;101550.50;;;8.52;80.63
65131;BME280;51709;54.912;8.316;2023-05-11T03:44:53;101565.00;;;8.56;80.72
65131;BME280;51709;54.912;8.316;2023-05-11T03:50:18;101564.13;;;8.61;80.79
65131;BME280;51709;54.912;8.316;2023-05-11T03:55:40;101562.44;;;8.68;80.82
65131;BME280;51709;54.912;8.316;2023-05-11T04:01:02;101566.69;;;8.69;80.70
65131;BME280;51709;54.912;8.316;2023-05-11T04:06:23;101570.09;;;8.67;80.71
65131;BME280;51709;54.912;8.316;2023-05-11T04:11:51;101584.59;;;8.69;80.66
65131;BME280;51709;54.912;8.316;2023-05-11T04:17:13;101578.63;;;8.66;80.83
65131;BME280;51709;54.912;8.316;2023-05-11T04:22:36;101579.47;;;8.68;80.98
65131;BME280;51709;54.912;8.316;2023-05-11T04:27:57;101570.94;;;8.67;80.94
65131;BME280;51709;54.912;8.316;2023-05-11T04:33:18;101585.44;;;8.70;80.91
65131;BME280;51709;54.912;8.316;2023-05-11T04:38:39;101596.53;;;8.69;80.84
65131;BME280;51709;54.912;8.316;2023-05-11T04:44:00;101600.81;;;8.73;81.09
65131;BME280;51709;54.912;8.316;2023-05-11T04:49:22;101600.78;;;8.77;81.14
65131;BME280;51709;54.912;8.316;2023-05-11T04:54:43;101606.78;;;8.79;81.33
65131;BME280;51709;54.912;8.316;2023-05-11T05:00:06;101615.28;;;8.80;81.13
65131;BME280;51709;54.912;8.316;2023-05-11T05:05:28;101615.28;;;8.85;81.13
65131;BME280;51709;54.912;8.316;2023-05-11T05:10:49;101617.00;;;8.92;81.36
65131;BME280;51709;54.912;8.316;2023-05-11T05:16:10;101624.66;;;8.95;80.96
65131;BME280;51709;54.912;8.316;2023-05-11T05:21:31;101623.78;;;9.01;81.29
65131;BME280;51709;54.912;8.316;2023-05-11T05:26:51;101622.91;;;9.06;81.29
65131;BME280;51709;54.912;8.316;2023-05-11T05:32:12;101625.47;;;9.13;81.22
65131;BME280;51709;54.912;8.316;2023-05-11T05:37:33;101628.00;;;9.19;81.33
65131;BME280;51709;54.912;8.316;2023-05-11T05:42:53;101629.69;;;9.24;81.31
65131;BME280;51709;54.912;8.316;2023-05-11T05:48:16;101645.94;;;9.28;80.99
65131;BME280;51709;54.912;8.316;2023-05-11T05:53:37;101645.94;;;9.28;80.98
65131;BME280;51709;54.912;8.316;2023-05-11T05:58:58;101654.47;;;9.24;80.91
65131;BME280;51709;54.912;8.316;2023-05-11T06:04:19;101659.59;;;9.21;81.01
65131;BME280;51709;54.912;8.316;2023-05-11T06:09:40;101663.84;;;9.27;81.20
65131;BME280;51709;54.912;8.316;2023-05-11T06:15:01;101660.41;;;9.37;81.38
65131;BME280;51709;54.912;8.316;2023-05-11T06:20:25;101657.84;;;9.37;80.90
65131;BME280;51709;54.912;8.316;2023-05-11T06:25:46;101669.84;;;9.32;81.08
65131;BME280;51709;54.912;8.316;2023-05-11T06:31:07;101670.66;;;9.35;81.16
65131;BME280;51709;54.912;8.316;2023-05-11T06:36:30;101669.81;;;9.36;81.13
65131;BME280;51709;54.912;8.316;2023-05-11T06:41:52;101670.66;;;9.37;81.06
65131;BME280;51709;54.912;8.316;2023-05-11T06:47:16;101680.91;;;9.40;81.45
65131;BME280;51709;54.912;8.316;2023-05-11T06:52:36;101687.72;;;9.46;81.12
65131;BME280;51709;54.912;8.316;2023-05-11T06:57:57;101679.16;;;9.51;81.25
65131;BME280;51709;54.912;8.316;2023-05-11T07:03:17;101680.00;;;9.58;81.35
65131;BME280;51709;54.912;8.316;2023-05-11T07:08:38;101686.84;;;9.59;81.26
65131;BME280;51709;54.912;8.316;2023-05-11T07:13:58;101684.22;;;9.73;81.38
65131;BME280;51709;54.912;8.316;2023-05-11T07:19:19;101679.88;;;9.84;81.32
65131;BME280;51709;54.912;8.316;2023-05-11T07:24:40;101684.09;;;10.01;81.25
65131;BME280;51709;54.912;8.316;2023-05-11T07:30:02;101672.06;;;10.15;81.08
65131;BME280;51709;54.912;8.316;2023-05-11T07:35:24;101677.97;;;10.24;81.20
65131;BME280;51709;54.912;8.316;2023-05-11T07:40:45;101678.75;;;10.43;81.23
65131;BME280;51709;54.912;8.316;2023-05-11T07:46:06;101675.25;;;10.53;81.01
65131;BME280;51709;54.912;8.316;2023-05-11T07:51:26;101689.78;;;10.53;81.30
65131;BME280;51709;54.912;8.316;2023-05-11T07:56:47;101692.28;;;10.63;81.18
65131;BME280;51709;54.912;8.316;2023-05-11T08:02:07;101687.00;;;10.82;81.13
65131;BME280;51709;54.912;8.316;2023-05-11T08:07:32;101695.47;;;10.95;81.05
65131;BME280;51709;54.912;8.316;2023-05-11T08:12:52;101696.09;;;11.19;80.99
65131;BME280;51709;54.912;8.316;2023-05-11T08:18:13;101698.66;;;11.17;80.86
65131;BME280;51709;54.912;8.316;2023-05-11T08:23:34;101700.19;;;11.35;81.10
65131;BME280;51709;54.912;8.316;2023-05-11T08:28:54;101715.53;;;11.43;80.78
65131;BME280;51709;54.912;8.316;2023-05-11T08:34:15;101707.00;;;11.43;80.78
65131;BME280;51709;54.912;8.316;2023-05-11T08:39:39;101720.59;;;11.51;81.08
65131;BME280;51709;54.912;8.316;2023-05-11T08:45:07;101724.72;;;11.66;80.63
65131;BME280;51709;54.912;8.316;2023-05-11T08:50:29;101726.25;;;11.82;80.78
65131;BME280;51709;54.912;8.316;2023-05-11T08:55:50;101729.53;;;11.98;80.86
65131;BME280;51709;54.912;8.316;2023-05-11T09:01:11;101732.81;;;12.10;80.62
65131;BME280;51709;54.912;8.316;2023-05-11T09:06:32;101733.44;;;12.27;80.68
65131;BME280;51709;54.912;8.316;2023-05-11T09:11:53;101741.84;;;12.40;80.39
65131;BME280;51709;54.912;8.316;2023-05-11T09:17:14;101738.19;;;12.57;80.22
65131;BME280;51709;54.912;8.316;2023-05-11T09:22:43;101731.06;;;12.73;80.22
65131;BME280;51709;54.912;8.316;2023-05-11T09:28:04;101736.97;;;12.78;80.13
65131;BME280;51709;54.912;8.316;2023-05-11T09:33:24;101754.06;;;12.84;80.15
65131;BME280;51709;54.912;8.316;2023-05-11T09:38:45;101756.63;;;12.85;80.08
65131;BME280;51709;54.912;8.316;2023-05-11T09:44:13;101751.25;;;12.99;79.96
65131;BME280;51709;54.912;8.316;2023-05-11T09:49:33;101757.78;;;13.20;79.69
65131;BME280;51709;54.912;8.316;2023-05-11T09:54:54;101757.66;;;13.26;79.48
65131;BME280;51709;54.912;8.316;2023-05-11T10:00:15;101766.38;;;13.18;79.05
65131;BME280;51709;54.912;8.316;2023-05-11T10:05:35;101759.56;;;13.15;79.38
65131;BME280;51709;54.912;8.316;2023-05-11T10:10:56;101764.63;;;13.21;79.24
65131;BME280;51709;54.912;8.316;2023-05-11T10:16:19;101755.88;;;13.32;79.16
65131;BME280;51709;54.912;8.316;2023-05-11T10:21:39;101760.03;;;13.39;78.78
65131;BME280;51709;54.912;8.316;2023-05-11T10:27:00;101755.38;;;13.60;78.61
65131;BME280;51709;54.912;8.316;2023-05-11T10:32:21;101757.06;;;13.61;77.97
65131;BME280;51709;54.912;8.316;2023-05-11T10:37:42;101755.63;;;13.46;78.12
65131;BME280;51709;54.912;8.316;2023-05-11T10:48:45;101750.22;;;13.60;78.08
65131;BME280;51709;54.912;8.316;2023-05-11T10:54:25;101754.09;;;13.81;77.68
65131;BME280;51709;54.912;8.316;2023-05-11T11:00:23;101757.69;;;14.16;77.43
65131;BME280;51709;54.912;8.316;2023-05-11T11:05:55;101749.88;;;14.58;77.28
65131;BME280;51709;54.912;8.316;2023-05-11T11:11:28;101759.22;;;15.00;76.35
65131;BME280;51709;54.912;8.316;2023-05-11T11:17:21;101753.88;;;15.41;76.12
65131;BME280;51709;54.912;8.316;2023-05-11T11:22:44;101759.13;;;15.71;75.50
65131;BME280;51709;54.912;8.316;2023-05-11T11:28:06;101764.97;;;15.78;75.45
65131;BME280;51709;54.912;8.316;2023-05-11T11:38:58;101778.84;;;16.37;74.48
65131;BME280;51709;54.912;8.316;2023-05-11T11:44:20;101772.38;;;16.78;74.38
65131;BME280;51709;54.912;8.316;2023-05-11T11:49:43;101764.63;;;17.31;74.05
65131;BME280;51709;54.912;8.316;2023-05-11T11:55:04;101776.91;;;18.00;73.09
65131;BME280;51709;54.912;8.316;2023-05-11T12:00:25;101770.63;;;18.52;72.31
65131;BME280;51709;54.912;8.316;2023-05-11T12:05:47;101765.78;;;19.07;71.44
65131;BME280;51709;54.912;8.316;2023-05-11T12:11:09;101774.56;;;19.65;70.69
65131;BME280;51709;54.912;8.316;2023-05-11T12:16:30;101776.88;;;20.11;70.01
65131;BME280;51709;54.912;8.316;2023-05-11T12:21:52;101771.50;;;20.33;68.87
65131;BME280;51709;54.912;8.316;2023-05-11T12:27:12;101777.19;;;20.42;68.43
65131;BME280;51709;54.912;8.316;2023-05-11T12:32:32;101770.19;;;20.61;67.97
65131;BME280;51709;54.912;8.316;2023-05-11T12:37:54;101765.84;;;20.43;67.45
65131;BME280;51709;54.912;8.316;2023-05-11T12:43:16;101777.41;;;20.37;67.13
65131;BME280;51709;54.912;8.316;2023-05-11T12:48:38;101787.13;;;20.33;66.83
65131;BME280;51709;54.912;8.316;2023-05-11T12:53:59;101794.34;;;20.28;66.82
65131;BME280;51709;54.912;8.316;2023-05-11T12:59:28;101779.00;;;20.03;66.27
65131;BME280;51709;54.912;8.316;2023-05-11T13:04:49;101789.44;;;19.43;66.33
65131;BME280;51709;54.912;8.316;2023-05-11T13:10:13;101773.50;;;19.09;66.78
65131;BME280;51709;54.912;8.316;2023-05-11T13:15:33;101783.75;;;18.91;66.53
65131;BME280;51709;54.912;8.316;2023-05-11T13:21:05;101778.50;;;18.71;66.11
65131;BME280;51709;54.912;8.316;2023-05-11T13:26:28;101775.13;;;18.24;66.18
65131;BME280;51709;54.912;8.316;2023-05-11T13:31:51;101777.56;;;17.81;66.77
65131;BME280;51709;54.912;8.316;2023-05-11T13:37:12;101775.63;;;17.63;67.04
65131;BME280;51709;54.912;8.316;2023-05-11T13:42:32;101772.84;;;18.16;66.80
65131;BME280;51709;54.912;8.316;2023-05-11T13:47:53;101768.34;;;18.64;65.16
65131;BME280;51709;54.912;8.316;2023-05-11T13:53:17;101772.69;;;18.86;64.44
65131;BME280;51709;54.912;8.316;2023-05-11T13:58:37;101768.19;;;18.90;64.38
65131;BME280;51709;54.912;8.316;2023-05-11T14:03:58;101762.41;;;18.83;64.26
65131;BME280;51709;54.912;8.316;2023-05-11T14:09:19;101763.00;;;18.90;63.80
65131;BME280;51709;54.912;8.316;2023-05-11T14:14:39;101768.06;;;18.93;63.86
65131;BME280;51709;54.912;8.316;2023-05-11T14:20:00;101763.44;;;18.79;63.74
65131;BME280;51709;54.912;8.316;2023-05-11T14:25:20;101762.53;;;18.80;63.46
65131;BME280;51709;54.912;8.316;2023-05-11T14:30:41;101749.34;;;18.85;62.96
65131;BME280;51709;54.912;8.316;2023-05-11T14:36:02;101754.72;;;19.02;63.35
65131;BME280;51709;54.912;8.316;2023-05-11T14:41:22;101759.25;;;19.38;62.72
65131;BME280;51709;54.912;8.316;2023-05-11T14:46:43;101766.66;;;20.07;61.81
65131;BME280;51709;54.912;8.316;2023-05-11T14:52:04;101755.75;;;19.98;61.18
65131;BME280;51709;54.912;8.316;2023-05-11T14:57:24;101751.78;;;19.31;62.03
65131;BME280;51709;54.912;8.316;2023-05-11T15:02:45;101749.03;;;18.92;62.27
65131;BME280;51709;54.912;8.316;2023-05-11T15:08:05;101756.03;;;19.33;61.97
65131;BME280;51709;54.912;8.316;2023-05-11T15:13:41;101769.59;;;20.18;60.50
65131;BME280;51709;54.912;8.316;2023-05-11T15:19:02;101779.13;;;20.19;59.75
65131;BME280;51709;54.912;8.316;2023-05-11T15:24:22;101782.63;;;19.80;59.90
65131;BME280;51709;54.912;8.316;2023-05-11T15:29:43;101785.78;;;18.62;61.25
65131;BME280;51709;54.912;8.316;2023-05-11T15:35:04;101784.09;;;17.68;62.20
65131;BME280;51709;54.912;8.316;2023-05-11T15:40:25;101782.66;;;17.08;62.93
65131;BME280;51709;54.912;8.316;2023-05-11T15:45:47;101788.41;;;16.63;62.95
65131;BME280;51709;54.912;8.316;2023-05-11T15:51:08;101789.44;;;16.29;62.87
65131;BME280;51709;54.912;8.316;2023-05-11T15:56:28;101787.66;;;16.01;63.15
65131;BME280;51709;54.912;8.316;2023-05-11T16:01:49;101781.22;;;15.84;63.11
65131;BME280;51709;54.912;8.316;2023-05-11T16:07:09;101780.84;;;15.65;63.10
65131;BME280;51709;54.912;8.316;2023-05-11T16:12:30;101778.66;;;15.51;63.24
65131;BME280;51709;54.912;8.316;2023-05-11T16:17:51;101782.31;;;15.43;63.20
65131;BME280;51709;54.912;8.316;2023-05-11T16:23:11;101778.28;;;15.32;63.17
65131;BME280;51709;54.912;8.316;2023-05-11T16:28:33;101778.78;;;15.12;63.49
65131;BME280;51709;54.912;8.316;2023-05-11T16:33:53;101779.25;;;14.92;63.68
65131;BME280;51709;54.912;8.316;2023-05-11T16:39:14;101789.19;;;14.73;63.97
65131;BME280;51709;54.912;8.316;2023-05-11T16:44:34;101788.53;;;14.63;64.03
65131;BME280;51709;54.912;8.316;2023-05-11T16:49:55;101778.38;;;14.55;63.89
65131;BME280;51709;54.912;8.316;2023-05-11T16:55:16;101778.59;;;14.44;64.19
65131;BME280;51709;54.912;8.316;2023-05-11T17:00:36;101786.59;;;14.33;64.36
65131;BME280;51709;54.912;8.316;2023-05-11T17:05:57;101783.25;;;14.28;64.49
65131;BME280;51709;54.912;8.316;2023-05-11T17:11:19;101774.75;;;14.23;64.77
65131;BME280;51709;54.912;8.316;2023-05-11T17:16:39;101787.75;;;14.20;64.75
65131;BME280;51709;54.912;8.316;2023-05-11T17:22:00;101793.75;;;14.21;65.04
65131;BME280;51709;54.912;8.316;2023-05-11T17:27:21;101790.47;;;14.12;65.22
65131;BME280;51709;54.912;8.316;2023-05-11T17:32:42;101789.84;;;14.01;65.42
65131;BME280;51709;54.912;8.316;2023-05-11T17:38:04;101787.47;;;13.90;65.72
65131;BME280;51709;54.912;8.316;2023-05-11T17:43:26;101800.66;;;13.76;65.86
65131;BME280;51709;54.912;8.316;2023-05-11T17:48:47;101799.94;;;13.66;65.99
65131;BME280;51709;54.912;8.316;2023-05-11T17:54:08;101803.56;;;13.58;66.04
65131;BME280;51709;54.912;8.316;2023-05-11T17:59:28;101802.97;;;13.41;66.34
65131;BME280;51709;54.912;8.316;2023-05-11T18:04:49;101806.69;;;13.25;66.58
65131;BME280;51709;54.912;8.316;2023-05-11T18:10:10;101807.78;;;13.10;66.67
65131;BME280;51709;54.912;8.316;2023-05-11T18:15:30;101811.41;;;12.97;66.89
65131;BME280;51709;54.912;8.316;2023-05-11T18:20:51;101820.19;;;12.83;67.11
65131;BME280;51709;54.912;8.316;2023-05-11T18:26:12;101824.69;;;12.69;67.45
65131;BME280;51709;54.912;8.316;2023-05-11T18:31:33;101824.00;;;12.57;67.56
65131;BME280;51709;54.912;8.316;2023-05-11T18:36:53;101829.25;;;12.49;67.55
65131;BME280;51709;54.912;8.316;2023-05-11T18:49:41;101826.88;;;12.34;67.84
65131;BME280;51709;54.912;8.316;2023-05-11T18:55:01;101845.84;;;12.28;68.04
65131;BME280;51709;54.912;8.316;2023-05-11T19:00:22;101844.22;;;12.20;68.25
65131;BME280;51709;54.912;8.316;2023-05-11T19:05:42;101851.97;;;12.15;68.42
65131;BME280;51709;54.912;8.316;2023-05-11T19:11:07;101856.25;;;12.14;68.62
65131;BME280;51709;54.912;8.316;2023-05-11T19:16:28;101859.75;;;12.10;68.68
65131;BME280;51709;54.912;8.316;2023-05-11T19:21:51;101867.53;;;12.04;68.86
65131;BME280;51709;54.912;8.316;2023-05-11T19:27:12;101874.47;;;11.99;69.19
65131;BME280;51709;54.912;8.316;2023-05-11T19:32:34;101871.94;;;11.91;69.36
65131;BME280;51709;54.912;8.316;2023-05-11T19:37:55;101881.41;;;11.84;69.60
65131;BME280;51709;54.912;8.316;2023-05-11T19:43:15;101879.72;;;11.82;69.89
65131;BME280;51709;54.912;8.316;2023-05-11T19:48:36;101884.91;;;11.77;69.93
65131;BME280;51709;54.912;8.316;2023-05-11T19:53:57;101882.34;;;11.76;70.07
65131;BME280;51709;54.912;8.316;2023-05-11T19:59:18;101892.59;;;11.80;70.20
65131;BME280;51709;54.912;8.316;2023-05-11T20:04:38;101880.56;;;11.84;70.26
65131;BME280;51709;54.912;8.316;2023-05-11T20:10:04;101875.38;;;11.87;70.46
65131;BME280;51709;54.912;8.316;2023-05-11T20:15:25;101881.34;;;11.92;70.36
65131;BME280;51709;54.912;8.316;2023-05-11T20:20:46;101881.31;;;11.97;70.63
65131;BME280;51709;54.912;8.316;2023-05-11T20:26:06;101874.41;;;12.02;70.74
65131;BME280;51709;54.912;8.316;2023-05-11T20:31:28;101872.66;;;12.07;70.76
65131;BME280;51709;54.912;8.316;2023-05-11T20:36:49;101882.88;;;12.12;71.00
65131;BME280;51709;54.912;8.316;2023-05-11T20:42:17;101875.09;;;12.20;71.16
65131;BME280;51709;54.912;8.316;2023-05-11T20:47:38;101881.03;;;12.26;71.13
65131;BME280;51709;54.912;8.316;2023-05-11T20:52:58;101874.09;;;12.31;71.14
65131;BME280;51709;54.912;8.316;2023-05-11T20:58:19;101881.75;;;12.36;71.47
65131;BME280;51709;54.912;8.316;2023-05-11T21:03:39;101879.97;;;12.43;71.47
65131;BME280;51709;54.912;8.316;2023-05-11T21:09:00;101880.75;;;12.48;71.42
65131;BME280;51709;54.912;8.316;2023-05-11T21:14:22;101885.81;;;12.54;71.36
65131;BME280;51709;54.912;8.316;2023-05-11T21:19:43;101878.88;;;12.61;71.49
65131;BME280;51709;54.912;8.316;2023-05-11T21:25:04;101886.50;;;12.69;71.75
65131;BME280;51709;54.912;8.316;2023-05-11T21:30:25;101890.72;;;12.74;71.75
65131;BME280;51709;54.912;8.316;2023-05-11T21:35:46;101882.94;;;12.81;71.97
65131;BME280;51709;54.912;8.316;2023-05-11T21:41:07;101892.28;;;12.88;71.84
65131;BME280;51709;54.912;8.316;2023-05-11T21:46:28;101888.75;;;12.93;71.81
65131;BME280;51709;54.912;8.316;2023-05-11T21:51:48;101886.06;;;13.00;71.75
65131;BME280;51709;54.912;8.316;2023-05-11T21:57:09;101887.75;;;13.04;72.02
65131;BME280;51709;54.912;8.316;2023-05-11T22:02:30;101882.53;;;13.08;72.03
65131;BME280;51709;54.912;8.316;2023-05-11T22:07:50;101885.06;;;13.12;72.09
65131;BME280;51709;54.912;8.316;2023-05-11T22:13:16;101886.72;;;13.16;72.08
65131;BME280;51709;54.912;8.316;2023-05-11T22:18:37;101890.97;;;13.18;72.19
65131;BME280;51709;54.912;8.316;2023-05-11T22:23:57;101890.94;;;13.20;72.19
65131;BME280;51709;54.912;8.316;2023-05-11T22:29:19;101896.09;;;13.21;72.52
65131;BME280;51709;54.912;8.316;2023-05-11T22:34:39;101889.25;;;13.20;72.33
65131;BME280;51709;54.912;8.316;2023-05-11T22:40:00;101891.81;;;13.20;72.30
65131;BME280;51709;54.912;8.316;2023-05-11T22:45:20;101887.50;;;13.21;72.51
65131;BME280;51709;54.912;8.316;2023-05-11T22:50:41;101892.66;;;13.21;72.64
65131;BME280;51709;54.912;8.316;2023-05-11T22:56:06;101888.38;;;13.21;72.43
65131;BME280;51709;54.912;8.316;2023-05-11T23:01:28;101882.34;;;13.21;72.61
65131;BME280;51709;54.912;8.316;2023-05-11T23:06:49;101886.63;;;13.22;72.60
65131;BME280;51709;54.912;8.316;2023-05-11T23:12:09;101887.50;;;13.22;72.41
65131;BME280;51709;54.912;8.316;2023-05-11T23:17:29;101895.22;;;13.22;72.50
65131;BME280;51709;54.912;8.316;2023-05-11T23:22:50;101890.03;;;13.24;72.61
65131;BME280;51709;54.912;8.316;2023-05-11T23:28:11;101890.94;;;13.21;72.46
65131;BME280;51709;54.912;8.316;2023-05-11T23:33:31;101883.22;;;13.21;72.36
65131;BME280;51709;54.912;8.316;2023-05-11T23:38:52;101887.53;;;13.19;72.54
65131;BME280;51709;54.912;8.316;2023-05-11T23:44:13;101889.28;;;13.17;72.50
65131;BME280;51709;54.912;8.316;2023-05-11T23:49:33;101892.72;;;13.16;72.41
65131;BME280;51709;54.912;8.316;2023-05-11T23:54:54;101880.72;;;13.15;72.35
